Time;durP1;ratioP1;P1;durP2;ratioP2;P2;SDS_P1;SDS_P2;PMS_P1;PMS_P2;Temp;Humidity;BMP_temperature;BMP_pressure;BME280_temperature;BME280_humidity;BME280_pressure;Samples;Min_cycle;Max_cycle;Signal;HPM_P1;HPM_P2
2023/07/03 00:00:32;;;;;;;;;2.00;2.00;;;;;21.79;44.87;101062.88;5018254;28;45448;-63
2023/07/03 00:02:57;;;;;;;;;5.00;2.50;;;;;21.77;44.90;101061.28;5018233;28;46188;-63
2023/07/03 00:05:23;;;;;;;;;2.50;2.00;;;;;21.75;45.08;101060.50;4995314;28;57581;-63
2023/07/03 00:07:49;;;;;;;;;1.75;1.00;;;;;21.78;45.25;101073.88;5010585;28;45433;-63
2023/07/03 00:10:16;;;;;;;;;1.25;1.25;;;;;21.75;45.16;101064.13;4999611;28;45439;-63
2023/07/03 00:12:42;;;;;;;;;2.75;2.75;;;;;21.72;44.90;101063.44;5001347;28;46348;-63
2023/07/03 00:15:08;;;;;;;;;3.25;2.25;;;;;21.63;45.02;101048.69;4990893;28;45347;-63
2023/07/03 00:17:34;;;;;;;;;3.00;3.00;;;;;21.63;45.16;101048.69;5001795;28;45341;-63
2023/07/03 00:19:59;;;;;;;;;3.25;2.75;;;;;21.71;45.63;101064.44;5014922;28;45475;-63
2023/07/03 00:22:24;;;;;;;;;4.25;2.00;;;;;21.65;45.82;101053.06;5011195;28;53369;-63
2023/07/03 00:24:50;;;;;;;;;3.25;2.25;;;;;21.68;45.58;101057.38;5006713;28;45445;-63
2023/07/03 00:27:15;;;;;;;;;4.00;3.00;;;;;21.62;45.53;101056.00;5000480;28;53221;-63
2023/07/03 00:29:40;;;;;;;;;4.00;3.00;;;;;21.53;45.79;101047.66;5004420;28;45325;-63
2023/07/03 00:32:07;;;;;;;;;4.25;1.25;;;;;21.63;46.32;101057.75;5011669;28;45432;-63
2023/07/03 00:34:32;;;;;;;;;0.50;0.50;;;;;21.54;45.97;101033.97;5014862;28;45402;-63
2023/07/03 00:36:57;;;;;;;;;5.75;2.75;;;;;21.60;45.94;101040.78;5000581;28;45725;-63
2023/07/03 00:39:23;;;;;;;;;2.25;2.25;;;;;21.67;46.52;101039.38;5014521;28;52426;-63
2023/07/03 00:41:49;;;;;;;;;2.25;1.00;;;;;21.61;46.13;101023.50;5001282;28;45452;-63
2023/07/03 00:44:17;;;;;;;;;7.25;3.00;;;;;21.65;46.41;101036.75;5014616;28;45345;-63
2023/07/03 00:46:45;;;;;;;;;3.25;2.25;;;;;21.61;46.93;101029.81;4979409;28;45563;-63
2023/07/03 00:49:11;;;;;;;;;3.00;3.00;;;;;21.61;46.81;101027.09;5014642;28;45442;-63
2023/07/03 00:51:44;;;;;;;;;3.00;2.00;;;;;21.63;46.93;101040.56;5000281;28;45412;-63
2023/07/03 00:54:10;;;;;;;;;4.00;2.50;;;;;21.58;46.76;101023.72;4999775;28;45523;-63
2023/07/03 00:56:36;;;;;;;;;3.00;2.75;;;;;21.62;46.80;101039.69;5000090;28;45731;-63
2023/07/03 00:59:02;;;;;;;;;3.75;0.00;;;;;21.59;46.96;101037.19;5006284;28;45481;-63
2023/07/03 01:01:43;;;;;;;;;2.00;2.00;;;;;21.59;47.00;101034.50;5009034;28;46115;-63
2023/07/03 01:04:19;;;;;;;;;3.25;2.00;;;;;21.58;46.87;101037.31;4971778;28;45733;-63
2023/07/03 01:06:56;;;;;;;;;3.00;3.00;;;;;21.58;47.19;101030.03;5000257;28;45416;-63
2023/07/03 01:09:26;;;;;;;;;3.25;3.25;;;;;21.54;46.92;101020.38;5011598;28;45515;-63
2023/07/03 01:11:52;;;;;;;;;3.00;2.00;;;;;21.59;47.46;101023.63;5007099;28;45391;-63
2023/07/03 01:14:20;;;;;;;;;1.25;1.25;;;;;21.60;47.29;101028.09;4991648;28;45373;-63
2023/07/03 01:16:51;;;;;;;;;3.50;3.50;;;;;21.58;47.29;101034.59;4999684;28;45391;-63
2023/07/03 01:19:31;;;;;;;;;3.25;2.25;;;;;21.49;47.19;101014.44;5001024;28;45344;-63
2023/07/03 01:22:08;;;;;;;;;4.75;3.00;;;;;21.53;47.45;101026.78;5000417;28;45440;-63
2023/07/03 01:24:52;;;;;;;;;2.00;1.75;;;;;21.57;47.48;101031.03;5014069;28;45517;-63
2023/07/03 01:27:22;;;;;;;;;3.75;3.00;;;;;21.48;47.55;101023.53;4999653;28;45405;-63
2023/07/03 01:29:50;;;;;;;;;2.50;2.50;;;;;21.56;48.32;101031.13;5004514;28;45340;-63
2023/07/03 01:32:22;;;;;;;;;4.25;3.00;;;;;21.54;48.19;101033.09;5009654;28;45612;-63
2023/07/03 01:34:53;;;;;;;;;4.50;2.00;;;;;21.51;48.40;101027.91;5014041;28;45452;-63
2023/07/03 01:37:20;;;;;;;;;5.00;3.00;;;;;21.53;47.92;101031.34;4997078;28;45393;-63
2023/07/03 01:39:49;;;;;;;;;2.50;2.25;;;;;21.56;48.63;101036.56;5006387;28;45267;-63
2023/07/03 01:42:14;;;;;;;;;6.00;5.00;;;;;21.54;48.24;101033.97;5002444;28;46171;-63
2023/07/03 01:44:39;;;;;;;;;3.50;3.50;;;;;21.54;48.37;101036.69;5007241;28;45514;-63
2023/07/03 01:47:08;;;;;;;;;2.50;2.50;;;;;21.45;48.88;101023.72;4982841;28;45473;-63
2023/07/03 01:49:33;;;;;;;;;4.25;2.75;;;;;21.39;49.06;101007.91;5011187;28;45396;-63
2023/07/03 01:52:27;;;;;;;;;4.50;4.50;;;;;21.53;49.27;101036.78;5000967;28;46069;-63
2023/07/03 01:55:17;;;;;;;;;5.50;5.00;;;;;21.51;48.84;101038.75;5004484;28;45488;-63
2023/07/03 01:58:03;;;;;;;;;6.75;3.25;;;;;21.50;49.26;101035.19;4997282;28;45380;-63
2023/07/03 02:00:35;;;;;;;;;4.00;2.75;;;;;21.46;49.68;101037.19;5006925;28;45359;-63
2023/07/03 02:03:06;;;;;;;;;3.25;3.00;;;;;21.45;49.38;101031.88;4976224;28;45949;-63
2023/07/03 02:05:38;;;;;;;;;3.25;3.25;;;;;21.36;49.71;101017.13;4998987;28;45669;-63
2023/07/03 02:08:07;;;;;;;;;3.75;3.75;;;;;21.36;49.46;101017.13;5013384;28;45384;-63
2023/07/03 02:10:32;;;;;;;;;3.00;2.00;;;;;21.43;49.52;101026.59;5008095;28;45403;-63
2023/07/03 02:12:58;;;;;;;;;5.75;3.00;;;;;21.44;49.57;101025.59;5006456;28;45469;-63
2023/07/03 02:15:23;;;;;;;;;5.00;3.00;;;;;21.47;49.77;101027.25;4999112;28;45380;-63
2023/07/03 02:17:53;;;;;;;;;3.00;3.00;;;;;21.47;49.74;101032.69;5011968;28;45388;-63
2023/07/03 02:20:18;;;;;;;;;3.50;3.00;;;;;21.41;50.12;101020.38;5006565;28;45332;-63
2023/07/03 02:22:44;;;;;;;;;4.00;4.00;;;;;21.43;50.00;101026.59;5006574;28;45645;-63
2023/07/03 02:25:10;;;;;;;;;3.00;2.25;;;;;21.44;50.10;101033.75;4996686;28;53782;-63
2023/07/03 02:27:36;;;;;;;;;4.25;3.00;;;;;21.43;50.44;101023.88;4998727;28;45756;-63
2023/07/03 02:30:04;;;;;;;;;3.00;3.00;;;;;21.39;50.56;101013.34;5001078;28;45534;-63
2023/07/03 02:32:33;;;;;;;;;3.75;3.50;;;;;21.32;50.34;101001.19;5012621;28;46362;-63
2023/07/03 02:34:58;;;;;;;;;3.00;3.00;;;;;21.37;50.27;101009.88;5003083;28;46496;-63
2023/07/03 02:37:24;;;;;;;;;4.75;3.25;;;;;21.41;50.18;101006.81;5001305;28;45384;-63
2023/07/03 02:39:49;;;;;;;;;5.25;4.25;;;;;21.41;50.31;101006.81;4998878;28;45512;-63
2023/07/03 02:42:14;;;;;;;;;4.00;2.75;;;;;21.36;50.49;100995.41;5006607;28;46170;-63
2023/07/03 02:44:40;;;;;;;;;2.75;2.75;;;;;21.38;50.81;101001.59;4998939;28;45629;-63
2023/07/03 02:47:05;;;;;;;;;3.75;3.75;;;;;21.32;50.91;100996.63;5012521;28;48802;-63
2023/07/03 02:49:30;;;;;;;;;3.00;2.25;;;;;21.38;50.28;101008.88;5004635;28;45364;-63
2023/07/03 02:51:56;;;;;;;;;3.50;3.00;;;;;21.19;50.93;100974.09;4999559;28;46566;-63
2023/07/03 02:54:21;;;;;;;;;5.50;3.75;;;;;21.34;50.97;101010.97;5009097;28;45495;-63
2023/07/03 02:56:46;;;;;;;;;4.00;4.00;;;;;21.35;50.53;101012.72;5012504;28;45550;-63
2023/07/03 02:59:14;;;;;;;;;4.00;3.00;;;;;21.38;51.16;101023.31;4999667;28;45492;-63
2023/07/03 03:01:40;;;;;;;;;8.00;4.00;;;;;21.37;50.86;101023.47;4994763;28;47119;-63
2023/07/03 03:04:05;;;;;;;;;5.25;3.00;;;;;21.33;51.00;101024.66;4998094;28;45327;-63
2023/07/03 03:06:31;;;;;;;;;4.00;3.00;;;;;21.34;50.98;101026.41;4998428;28;45385;-63
2023/07/03 03:08:57;;;;;;;;;5.75;4.50;;;;;21.29;51.21;101011.28;5006136;28;45227;-63
2023/07/03 03:11:22;;;;;;;;;5.00;5.00;;;;;21.27;50.96;101017.81;5005347;28;47263;-63
2023/07/03 03:13:47;;;;;;;;;8.25;5.00;;;;;21.28;51.43;101017.72;5009840;28;45266;-63
2023/07/03 03:16:13;;;;;;;;;4.00;4.00;;;;;21.26;51.37;101011.50;4999244;28;45282;-63
2023/07/03 03:18:38;;;;;;;;;5.00;3.50;;;;;21.27;51.52;101012.41;5012071;28;45273;-63
2023/07/03 03:21:03;;;;;;;;;6.25;5.50;;;;;21.18;51.43;100997.63;5011139;28;46549;-63
2023/07/03 03:23:29;;;;;;;;;4.75;4.00;;;;;21.15;51.58;100986.13;4998695;28;45563;-63
2023/07/03 03:25:54;;;;;;;;;5.75;4.00;;;;;21.17;51.92;100997.78;4998326;28;45575;-63
2023/07/03 03:28:20;;;;;;;;;5.00;4.50;;;;;21.21;51.95;101004.69;4998516;28;45502;-63
2023/07/03 03:30:45;;;;;;;;;6.25;5.00;;;;;21.20;51.60;101009.25;4998734;28;47723;-63
2023/07/03 03:33:11;;;;;;;;;6.00;5.00;;;;;21.18;51.69;101011.19;4998381;28;45480;-63
2023/07/03 03:35:36;;;;;;;;;6.75;6.75;;;;;21.18;51.90;101019.34;4998170;28;45313;-63
2023/07/03 03:38:01;;;;;;;;;5.00;5.00;;;;;21.16;52.39;101002.31;5011244;28;45449;-63
2023/07/03 03:40:27;;;;;;;;;6.25;6.00;;;;;21.15;52.20;101010.56;4998458;28;45384;-63
2023/07/03 03:42:52;;;;;;;;;4.25;4.25;;;;;;;;5006128;28;45525;-63
2023/07/03 03:45:18;;;;;;;;;4.75;4.00;;;;;21.13;52.63;101009.81;4998760;28;45480;-63
2023/07/03 03:47:43;;;;;;;;;7.75;5.75;;;;;21.13;52.49;101001.66;5007943;28;45460;-63
2023/07/03 03:50:08;;;;;;;;;5.75;5.00;;;;;21.08;53.02;101002.88;5008684;28;46109;-63
2023/07/03 03:52:34;;;;;;;;;6.50;6.25;;;;;21.08;52.54;100997.47;5007994;28;45392;-63
2023/07/03 03:54:59;;;;;;;;;6.50;4.50;;;;;21.03;52.83;100994.22;5008605;28;45462;-63
2023/07/03 03:57:25;;;;;;;;;8.00;6.00;;;;;21.07;53.05;100997.56;5007768;28;46942;-63
2023/07/03 03:59:50;;;;;;;;;5.00;4.50;;;;;21.11;53.33;101009.91;5009466;28;46082;-63
2023/07/03 04:02:15;;;;;;;;;7.00;6.00;;;;;21.12;52.92;101010.78;5012340;28;45336;-63
2023/07/03 04:04:41;;;;;;;;;6.50;3.50;;;;;21.09;53.48;101003.75;5004040;28;45568;-63
2023/07/03 04:07:06;;;;;;;;;5.75;5.00;;;;;21.04;53.80;101001.34;5001305;28;45317;-63
2023/07/03 04:09:31;;;;;;;;;4.50;4.50;;;;;21.12;53.56;101018.91;5014457;28;45356;-63
2023/07/03 04:11:57;;;;;;;;;3.00;2.75;;;;;21.02;53.83;100999.75;5008300;28;45426;-63
2023/07/03 04:14:22;;;;;;;;;5.25;5.25;;;;;21.08;53.42;101002.00;5007607;28;45556;-63
2023/07/03 04:16:49;;;;;;;;;4.50;3.25;;;;;21.16;53.43;101015.03;5001551;28;45471;-63
2023/07/03 04:19:18;;;;;;;;;6.00;4.50;;;;;21.15;54.03;101019.59;5001822;28;45460;-63
2023/07/03 04:21:43;;;;;;;;;3.75;3.00;;;;;21.16;53.84;101015.88;5014870;28;45414;-63
2023/07/03 04:24:09;;;;;;;;;8.00;6.75;;;;;21.13;54.17;101007.09;5007276;28;45661;-63
2023/07/03 04:26:36;;;;;;;;;5.25;5.25;;;;;21.13;54.21;101016.09;5000823;28;45511;-63
2023/07/03 04:29:02;;;;;;;;;7.25;5.00;;;;;21.08;54.20;101008.31;4997533;28;47017;-63
2023/07/03 04:31:27;;;;;;;;;8.50;5.50;;;;;21.07;54.14;101003.00;5014320;28;53591;-63
2023/07/03 04:33:52;;;;;;;;;5.00;4.25;;;;;21.02;54.44;100999.75;5009925;28;45323;-63
2023/07/03 04:36:20;;;;;;;;;6.50;4.75;;;;;21.05;54.01;101002.25;5000827;28;45331;-63
2023/07/03 04:39:10;;;;;;;;;4.50;4.00;;;;;21.09;54.11;101006.47;5000145;28;45404;-63
2023/07/03 04:41:39;;;;;;;;;6.00;5.00;;;;;21.11;54.48;100999.06;4980666;28;45498;-63
2023/07/03 04:44:07;;;;;;;;;7.75;5.75;;;;;21.01;54.86;100985.28;5000639;28;45472;-63
2023/07/03 04:46:51;;;;;;;;;4.75;4.75;;;;;20.98;54.54;100979.22;5008622;28;45657;-63
2023/07/03 04:49:19;;;;;;;;;6.50;6.00;;;;;20.95;54.46;100974.91;4985436;28;47186;-63
2023/07/03 04:51:47;;;;;;;;;3.25;3.25;;;;;20.98;54.58;100977.41;4998914;28;45816;-63
2023/07/03 04:54:12;;;;;;;;;6.25;3.50;;;;;21.00;55.04;100997.16;5013651;28;45353;-63
2023/07/03 04:56:41;;;;;;;;;5.25;4.50;;;;;20.92;55.09;100985.97;4981454;28;45342;-63
2023/07/03 04:59:08;;;;;;;;;3.50;3.50;;;;;21.03;54.66;100996.94;5006182;28;47603;-63
2023/07/03 05:01:34;;;;;;;;;4.00;4.00;;;;;21.08;55.07;100999.28;5006680;28;45473;-63
2023/07/03 05:04:02;;;;;;;;;6.00;5.00;;;;;20.83;54.86;100960.38;5004844;28;45575;-63
2023/07/03 05:06:30;;;;;;;;;6.00;5.00;;;;;20.93;55.13;100974.13;4979485;28;45401;-63
2023/07/03 05:09:05;;;;;;;;;;;;;;;;;;;;;
2023/07/03 05:11:33;;;;;;;;;4.50;4.50;;;;;20.91;55.27;100974.25;5004630;28;71857;-63
2023/07/03 05:13:59;;;;;;;;;3.75;3.50;;;;;20.91;55.42;100971.56;4989544;28;45645;-63
2023/07/03 05:16:24;;;;;;;;;6.00;4.50;;;;;20.96;55.42;100979.34;5000978;28;45318;-63
2023/07/03 05:18:52;;;;;;;;;5.75;5.75;;;;;21.13;55.03;101012.53;5013713;28;45363;-63
2023/07/03 05:21:18;;;;;;;;;6.00;6.00;;;;;20.97;55.12;100980.22;4996196;28;45333;-63
2023/07/03 05:23:49;;;;;;;;;6.00;6.00;;;;;21.13;55.22;101002.53;5007605;28;45477;-63
2023/07/03 05:26:15;;;;;;;;;4.00;4.00;;;;;21.16;54.98;101012.31;4982928;28;45528;-63
2023/07/03 05:28:40;;;;;;;;;3.00;2.25;;;;;21.00;55.51;100997.16;5000682;28;45317;-63
2023/07/03 05:31:08;;;;;;;;;3.25;2.00;;;;;21.13;55.20;101017.94;5013771;28;45416;-63
2023/07/03 05:33:34;;;;;;;;;7.75;5.00;;;;;20.91;55.42;100989.66;5009679;28;45350;-63
2023/07/03 05:36:06;;;;;;;;;7.75;5.50;;;;;21.13;55.44;101016.09;4992980;28;45384;-63
2023/07/03 05:38:34;;;;;;;;;5.75;5.75;;;;;20.99;55.31;100989.13;4991899;28;47225;-63
2023/07/03 05:41:00;;;;;;;;;5.75;4.75;;;;;21.00;55.78;100994.44;5006816;28;45578;-63
2023/07/03 05:43:26;;;;;;;;;4.75;4.75;;;;;21.00;55.48;100988.13;5004584;28;45323;-63
2023/07/03 05:46:05;;;;;;;;;;;;;;;;;;;;;
2023/07/03 05:52:35;;;;;;;;;;;;;;;;;;;;;
2023/07/03 07:08:44;;;;;;;;;4.00;3.25;;;;;21.04;55.10;100997.78;4239204;22;45206;-83
2023/07/03 07:11:14;;;;;;;;;5.00;3.00;;;;;21.18;55.16;101023.91;5029321;28;46824;-82
2023/07/03 07:13:43;;;;;;;;;5.25;4.25;;;;;21.20;54.62;101021.94;5036297;28;45390;-82
2023/07/03 07:16:23;;;;;;;;;4.00;4.00;;;;;21.22;54.58;101022.72;5016013;28;45509;-82
2023/07/03 07:19:01;;;;;;;;;4.00;3.25;;;;;21.22;54.52;101029.00;5056372;28;45562;-83
2023/07/03 07:21:31;;;;;;;;;4.75;3.00;;;;;21.24;54.23;101020.75;5037833;28;46655;-81
2023/07/03 07:24:11;;;;;;;;;3.25;2.00;;;;;21.27;54.49;101029.56;5043632;28;45677;-81
2023/07/03 07:26:47;;;;;;;;;3.50;3.50;;;;;21.14;54.86;101004.28;5055925;28;45458;-82
2023/07/03 07:29:25;;;;;;;;;3.75;2.50;;;;;21.24;54.96;101032.47;5057111;28;45655;-81
2023/07/03 07:46:45;;;;;;;;;4.00;3.75;;;;;21.28;55.16;101041.25;5091028;22;46676;-81
2023/07/03 07:49:10;;;;;;;;;4.25;2.50;;;;;21.24;54.90;101035.19;4985063;28;45998;-81
2023/07/03 07:51:36;;;;;;;;;5.75;3.00;;;;;21.28;54.82;101038.56;4976008;28;45586;-81
2023/07/03 07:54:03;;;;;;;;;2.75;2.75;;;;;21.21;55.11;101026.41;4973606;28;45971;-81
2023/07/03 07:56:28;;;;;;;;;2.00;2.00;;;;;21.30;55.16;101044.75;4992620;28;45355;-80
2023/07/03 07:58:54;;;;;;;;;4.00;3.00;;;;;21.31;55.01;101045.63;4977770;28;45492;-81
2023/07/03 08:01:19;;;;;;;;;3.00;3.00;;;;;21.25;55.00;101036.06;4968249;28;45467;-81
2023/07/03 08:03:44;;;;;;;;;3.00;3.00;;;;;21.29;55.17;101041.16;4966854;28;46210;-80
2023/07/03 08:06:11;;;;;;;;;2.50;2.50;;;;;21.28;55.43;101041.25;4973136;28;45383;-80
2023/07/03 08:08:37;;;;;;;;;5.75;4.00;;;;;21.34;55.12;101042.69;4972656;28;45312;-80
2023/07/03 08:11:04;;;;;;;;;4.00;4.00;;;;;21.35;55.27;101042.56;4971290;28;45399;-80
2023/07/03 08:13:32;;;;;;;;;4.50;2.00;;;;;21.37;55.60;101035.19;4973178;28;45500;-81
2023/07/03 08:15:57;;;;;;;;;4.00;4.00;;;;;21.38;54.95;101044.19;4975142;28;45368;-81
2023/07/03 08:18:24;;;;;;;;;3.50;3.50;;;;;21.38;55.26;101039.59;4975037;28;45649;-80
2023/07/03 08:20:50;;;;;;;;;3.75;3.50;;;;;21.33;54.72;101036.38;4974412;28;45468;-80
2023/07/03 08:23:16;;;;;;;;;3.00;3.00;;;;;21.42;55.14;101038.41;4961851;28;45381;-81
2023/07/03 08:25:42;;;;;;;;;4.75;3.50;;;;;21.42;55.09;101043.00;4972200;28;45520;-81
2023/07/03 08:28:08;;;;;;;;;4.00;4.00;;;;;21.44;54.93;101038.31;4972868;28;45390;-79
2023/07/03 08:30:34;;;;;;;;;7.50;4.25;;;;;21.46;55.03;101041.78;4977035;28;45381;-79
2023/07/03 08:32:59;;;;;;;;;4.50;3.75;;;;;21.44;54.82;101025.59;4976641;28;46287;-79
2023/07/03 08:35:24;;;;;;;;;5.00;5.00;;;;;21.48;54.66;101033.53;4981029;28;46037;-79
2023/07/03 08:37:52;;;;;;;;;5.25;3.75;;;;;21.52;54.75;101035.94;4988134;28;45364;-80
2023/07/03 08:40:19;;;;;;;;;3.50;3.50;;;;;21.48;54.31;101017.25;4980519;28;45395;-76
2023/07/03 08:42:55;;;;;;;;;6.00;3.75;;;;;21.59;54.08;101036.34;4973109;28;45488;-78
2023/07/03 08:45:43;;;;;;;;;6.25;4.25;;;;;21.64;53.77;101040.44;4980521;28;45443;-77
2023/07/03 08:48:22;;;;;;;;;2.50;2.50;;;;;21.65;54.12;101039.47;4976166;28;45401;-77
2023/07/03 08:50:52;;;;;;;;;4.00;4.00;;;;;21.59;54.29;101020.91;4999763;28;45450;-80
2023/07/03 08:53:22;;;;;;;;;1.00;1.00;;;;;21.69;54.54;101037.38;4980426;28;46317;-81
2023/07/03 08:56:04;;;;;;;;;4.00;4.00;;;;;21.67;54.45;101023.06;4977356;28;45384;-84
2023/07/03 08:58:29;;;;;;;;;2.25;2.00;;;;;21.63;53.79;101017.00;4967686;28;45353;-83
2023/07/03 09:00:54;;;;;;;;;5.00;4.25;;;;;21.77;54.07;101036.81;4978821;28;45565;-83
2023/07/03 09:03:26;;;;;;;;;3.75;3.75;;;;;21.78;54.10;101050.28;4978045;28;47334;-85
2023/07/03 09:06:06;;;;;;;;;4.50;3.75;;;;;21.76;53.68;101041.38;4973293;28;45660;-85
2023/07/03 09:08:43;;;;;;;;;5.75;4.25;;;;;21.71;53.73;101035.41;4974590;28;45304;-86
2023/07/03 09:11:10;;;;;;;;;4.50;3.00;;;;;21.78;53.50;101057.56;4977068;28;45287;-86
2023/07/03 09:13:48;;;;;;;;;4.00;3.75;;;;;21.69;53.98;101041.97;4974479;28;48253;-86
2023/07/03 09:16:22;;;;;;;;;2.75;2.75;;;;;21.68;53.74;101041.06;4973986;28;45335;-86
2023/07/03 09:18:57;;;;;;;;;5.00;5.00;;;;;21.63;53.81;101037.84;4992166;28;45695;-85
2023/07/03 09:21:24;;;;;;;;;5.00;5.00;;;;;21.79;54.18;101062.88;4973976;28;45395;-86
2023/07/03 09:24:08;;;;;;;;;3.00;3.00;;;;;21.61;53.76;101031.66;4977765;28;46786;-86
2023/07/03 09:26:37;;;;;;;;;3.50;3.00;;;;;21.80;53.73;101052.88;4975664;28;45525;-86
2023/07/03 09:29:05;;;;;;;;;4.50;4.50;;;;;21.77;53.88;101048.56;4967689;28;45250;-82
2023/07/03 09:31:31;;;;;;;;;4.00;4.00;;;;;21.84;54.35;101051.69;4971633;28;45391;-83
2023/07/03 09:33:56;;;;;;;;;6.00;4.25;;;;;21.87;54.12;101054.16;4972751;28;45394;-82
2023/07/03 09:36:26;;;;;;;;;3.00;3.00;;;;;21.88;54.12;101052.31;4975623;28;45385;-82
2023/07/03 09:38:52;;;;;;;;;5.00;5.00;;;;;21.89;54.15;101049.47;4979255;28;45333;-82
2023/07/03 09:41:27;;;;;;;;;6.00;6.00;;;;;21.92;54.01;101045.66;4986990;28;45457;-83
2023/07/03 09:43:52;;;;;;;;;5.25;4.75;;;;;21.92;54.20;101041.09;4976986;28;46115;-82
2023/07/03 09:46:19;;;;;;;;;6.00;4.50;;;;;21.98;53.69;101039.75;4970419;28;45483;-83
2023/07/03 09:48:46;;;;;;;;;3.00;3.00;;;;;22.00;54.89;101044.09;4966928;28;45323;-83
2023/07/03 09:51:30;;;;;;;;;3.25;3.25;;;;;22.07;53.91;101041.78;4975539;28;45498;-83
2023/07/03 09:53:58;;;;;;;;;3.50;3.50;;;;;22.11;53.52;101047.84;4966899;28;46031;-84
2023/07/03 09:56:28;;;;;;;;;4.00;4.00;;;;;22.14;53.56;101042.19;4960888;28;45853;-83
2023/07/03 09:59:00;;;;;;;;;4.00;3.25;;;;;22.15;53.71;101031.19;4975912;28;45254;-83
2023/07/03 10:01:30;;;;;;;;;4.75;4.00;;;;;22.21;53.64;101051.59;4954208;28;45465;-83
2023/07/03 10:04:12;;;;;;;;;4.00;4.00;;;;;22.24;54.51;101039.63;4959682;28;46600;-84
2023/07/03 10:06:38;;;;;;;;;6.50;3.50;;;;;22.21;53.81;101029.84;4974420;28;45582;-81
2023/07/03 10:09:06;;;;;;;;;5.00;5.00;;;;;22.29;53.02;101046.47;4961893;28;45353;-83
2023/07/03 10:12:09;;;;;;;;;4.00;4.00;;;;;22.32;53.32;101048.06;4971554;28;45351;-83
2023/07/03 10:14:47;;;;;;;;;5.00;5.00;;;;;22.36;53.26;101060.47;4958302;28;47747;-83
2023/07/03 10:17:13;;;;;;;;;4.00;4.00;;;;;22.30;53.15;101041.91;4963084;28;45466;-82
2023/07/03 10:19:45;;;;;;;;;4.25;4.25;;;;;22.39;53.50;101052.94;4968665;28;45309;-82
2023/07/03 10:22:13;;;;;;;;;4.50;4.50;;;;;22.39;52.69;101052.94;4961261;28;45765;-82
2023/07/03 10:24:41;;;;;;;;;4.00;4.00;;;;;22.37;52.63;101054.91;4981456;28;46652;-82
2023/07/03 10:27:07;;;;;;;;;5.25;4.75;;;;;22.41;53.04;101063.69;4979918;28;45433;-82
2023/07/03 10:29:41;;;;;;;;;7.50;5.00;;;;;22.41;52.63;101066.41;4978573;28;45499;-82
2023/07/03 10:32:13;;;;;;;;;4.00;4.00;;;;;22.47;52.63;101065.06;4972577;28;45337;-80
2023/07/03 10:34:46;;;;;;;;;5.00;4.25;;;;;22.33;52.65;101030.78;4973802;28;45419;-81
2023/07/03 10:37:15;;;;;;;;;3.25;3.25;;;;;22.50;52.48;101056.66;4975719;28;45327;-81
2023/07/03 10:39:57;;;;;;;;;5.25;4.00;;;;;22.48;52.51;101058.66;4943625;28;45515;-81
2023/07/03 10:42:52;;;;;;;;;4.50;4.50;;;;;22.47;51.93;101067.78;4967981;28;45439;-81
2023/07/03 10:45:18;;;;;;;;;3.75;2.00;;;;;22.50;51.75;101057.56;4973497;28;45438;-81
2023/07/03 10:47:54;;;;;;;;;2.25;2.00;;;;;22.41;51.78;101035.66;4974757;28;45350;-81
2023/07/03 10:50:26;;;;;;;;;3.00;2.75;;;;;22.49;51.24;101063.13;4985811;28;45403;-81
2023/07/03 10:53:32;;;;;;;;;2.75;2.75;;;;;22.51;51.19;101061.13;4984080;28;45352;-81
2023/07/03 10:56:19;;;;;;;;;5.75;3.00;;;;;22.51;51.16;101056.56;4898596;29;45520;-81
2023/07/03 10:58:54;;;;;;;;;2.00;2.00;;;;;22.53;51.29;101049.13;4969207;28;45432;-81
2023/07/03 11:01:42;;;;;;;;;4.50;4.00;;;;;22.56;50.92;101053.47;4967685;28;45435;-81
2023/07/03 11:04:20;;;;;;;;;3.00;3.00;;;;;22.60;50.09;101051.38;4931387;28;45720;-81
2023/07/03 11:06:48;;;;;;;;;3.50;2.75;;;;;22.61;49.86;101051.25;4971446;28;45401;-81
2023/07/03 11:09:28;;;;;;;;;4.75;4.25;;;;;22.52;49.33;101022.94;4971539;28;45321;-81
2023/07/03 11:12:05;;;;;;;;;4.50;3.00;;;;;22.60;49.40;101044.06;4970813;28;45420;-81
2023/07/03 11:14:53;;;;;;;;;3.50;3.50;;;;;22.64;49.24;101040.16;4966166;28;45521;-81
2023/07/03 11:17:44;;;;;;;;;4.25;2.50;;;;;22.71;48.55;101052.28;4960859;28;47288;-81
2023/07/03 11:20:19;;;;;;;;;3.00;3.00;;;;;22.74;47.57;101045.72;4965155;28;45819;-81
2023/07/03 11:22:47;;;;;;;;;3.25;2.25;;;;;22.60;47.31;101026.91;4942665;28;45793;-81
2023/07/03 11:25:45;;;;;;;;;3.00;2.50;;;;;22.74;46.53;101041.16;4979265;28;45336;-81
2023/07/03 11:28:22;;;;;;;;;4.00;3.00;;;;;22.68;45.91;101036.19;4986066;28;45328;-81
2023/07/03 11:30:49;;;;;;;;;3.75;2.00;;;;;22.78;45.60;101044.50;4966585;28;45502;-81
2023/07/03 11:33:16;;;;;;;;;3.00;2.00;;;;;22.70;44.75;101026.06;4951472;28;45330;-81
2023/07/03 11:35:55;;;;;;;;;3.00;2.50;;;;;22.81;44.59;101033.38;4972824;28;46572;-81
2023/07/03 11:38:21;;;;;;;;;4.00;3.00;;;;;22.83;44.43;101039.53;4972050;28;45256;-81
2023/07/03 11:40:53;;;;;;;;;2.50;2.50;;;;;22.87;44.33;101040.16;4974531;28;45460;-81
2023/07/03 11:43:21;;;;;;;;;6.25;3.75;;;;;22.86;43.99;101031.13;4977620;28;45381;-81
2023/07/03 11:46:03;;;;;;;;;5.25;5.00;;;;;22.90;43.85;101027.19;4974260;28;45216;-82
2023/07/03 11:48:37;;;;;;;;;2.00;2.00;;;;;22.99;43.20;101030.16;4961601;28;45400;-81
2023/07/03 11:51:11;;;;;;;;;2.00;2.00;;;;;23.02;42.82;101043.50;4975761;28;45845;-81
2023/07/03 11:53:53;;;;;;;;;2.75;2.75;;;;;23.07;42.06;101044.03;4950155;28;45505;-81
2023/07/03 11:56:41;;;;;;;;;2.75;2.00;;;;;23.13;41.27;101047.13;4964129;28;46080;-81
2023/07/03 11:59:32;;;;;;;;;1.00;1.00;;;;;23.20;41.10;101043.94;4953622;28;45534;-80
2023/07/03 12:02:18;;;;;;;;;1.50;1.50;;;;;23.21;40.97;101038.38;4955366;28;45413;-81
2023/07/03 12:04:47;;;;;;;;;5.00;2.00;;;;;23.26;40.84;101044.28;4965268;28;45483;-81
2023/07/03 12:07:19;;;;;;;;;1.00;1.00;;;;;23.31;40.33;101052.09;4977636;28;45412;-81
2023/07/03 12:09:45;;;;;;;;;2.50;2.00;;;;;23.33;40.40;101051.97;4972153;28;46325;-81
2023/07/03 12:12:15;;;;;;;;;2.00;1.50;;;;;23.33;39.98;101043.81;4971051;28;45799;-81
2023/07/03 12:14:40;;;;;;;;;2.00;2.00;;;;;23.33;39.81;101058.28;4974340;28;45289;-81
2023/07/03 12:17:28;;;;;;;;;2.25;2.00;;;;;23.34;40.08;101049.13;4981590;28;45580;-81
2023/07/03 12:19:55;;;;;;;;;2.00;2.00;;;;;23.35;39.49;101050.84;4980213;28;45474;-81
2023/07/03 12:22:25;;;;;;;;;4.00;2.25;;;;;23.40;39.31;101064.09;4980637;28;45610;-81
2023/07/03 12:25:00;;;;;;;;;2.25;2.25;;;;;23.42;39.18;101048.47;4971464;28;45581;-81
2023/07/03 12:27:25;;;;;;;;;1.00;1.00;;;;;23.34;39.39;101034.63;4964392;28;45373;-81
2023/07/03 12:29:51;;;;;;;;;1.00;1.00;;;;;23.46;39.00;101055.44;4984777;28;45241;-81
2023/07/03 12:32:27;;;;;;;;;2.50;2.25;;;;;23.47;38.55;101057.16;4978978;28;46250;-81
2023/07/03 12:34:54;;;;;;;;;2.25;2.00;;;;;23.48;38.30;101062.47;4962255;28;45360;-81
2023/07/03 12:37:21;;;;;;;;;3.25;2.25;;;;;23.49;38.10;101057.91;4959547;28;45381;-81
2023/07/03 12:39:48;;;;;;;;;2.25;2.25;;;;;23.51;38.75;101057.78;4972582;28;45504;-81
2023/07/03 12:42:23;;;;;;;;;5.50;5.50;;;;;23.53;38.49;101056.66;4978945;28;45727;-81
2023/07/03 12:44:49;;;;;;;;;10.25;7.50;;;;;23.54;38.69;101054.78;4973874;28;46766;-80
2023/07/03 12:47:17;;;;;;;;;11.25;11.25;;;;;23.58;38.70;101057.13;4964115;28;45528;-81
2023/07/03 12:49:48;;;;;;;;;11.50;11.50;;;;;23.58;38.34;101045.38;4971462;28;46096;-80
2023/07/03 12:52:14;;;;;;;;;12.25;12.25;;;;;23.52;38.38;101037.69;4989523;28;45559;-81
2023/07/03 12:54:40;;;;;;;;;12.50;12.25;;;;;23.60;38.68;101051.56;4974631;28;45587;-81
2023/07/03 12:57:06;;;;;;;;;16.00;15.00;;;;;23.57;38.41;101039.06;4970679;28;45519;-81
2023/07/03 12:59:32;;;;;;;;;10.50;9.75;;;;;23.63;38.59;101049.44;4972974;28;46006;-81
2023/07/03 13:01:58;;;;;;;;;11.75;11.75;;;;;23.67;38.59;101047.31;4962494;28;45570;-79
2023/07/03 13:04:28;;;;;;;;;8.00;8.00;;;;;23.70;38.21;101057.97;4976561;28;45410;-78
2023/07/03 13:06:54;;;;;;;;;5.00;3.25;;;;;23.70;38.38;101068.03;4976973;28;45373;-79
2023/07/03 13:09:19;;;;;;;;;5.00;2.50;;;;;23.72;38.20;101058.72;4971716;28;45545;-78
2023/07/03 13:11:45;;;;;;;;;5.50;3.00;;;;;23.63;38.08;101037.69;4969503;28;45513;-78
2023/07/03 13:14:20;;;;;;;;;3.50;1.25;;;;;23.72;38.15;101039.63;4986707;28;45699;-78